Station: EBLB - 23/06/2018 03:55Z (il y a 38 minutes)
EBLB 230355Z AUTO 34004KT 9000 BKN006/// 06/05 Q1027 YLO
Vent du 340º - 4 kt
Visibilité: 9000 m
Ciel 75% couvert à 600 pieds
Température: +06ºC - Point de rosée: +05ºC - QNH: 1027 hPa
Code couleur militaire: YLO (conditions IMC ou marginales)